sensor_id;sensor_type;location;lat;lon;timestamp;pressure;altitude;pressure_sealevel;temperature;humidity
74163;BME280;62515;52.758;5.076;2023-03-01T00:00:13;103421.84;;;0.78;100.00
74163;BME280;62515;52.758;5.076;2023-03-01T00:02:41;103415.00;;;0.91;100.00
74163;BME280;62515;52.758;5.076;2023-03-01T00:05:08;103413.31;;;0.99;100.00
74163;BME280;62515;52.758;5.076;2023-03-01T00:07:35;103408.91;;;0.98;100.00
74163;BME280;62515;52.758;5.076;2023-03-01T00:10:02;103411.50;;;0.95;100.00
74163;BME280;62515;52.758;5.076;2023-03-01T00:12:29;103415.88;;;0.94;100.00
74163;BME280;62515;52.758;5.076;2023-03-01T00:14:55;103411.44;;;0.86;100.00
74163;BME280;62515;52.758;5.076;2023-03-01T00:17:22;103412.28;;;0.83;100.00
74163;BME280;62515;52.758;5.076;2023-03-01T00:19:50;103405.28;;;0.82;100.00
74163;BME280;62515;52.758;5.076;2023-03-01T00:22:17;103407.91;;;0.81;100.00
74163;BME280;62515;52.758;5.076;2023-03-01T00:24:44;103410.53;;;0.82;100.00
74163;BME280;62515;52.758;5.076;2023-03-01T00:27:11;103401.06;;;1.01;100.00
74163;BME280;62515;52.758;5.076;2023-03-01T00:29:37;103401.00;;;0.92;100.00
74163;BME280;62515;52.758;5.076;2023-03-01T00:32:04;103395.72;;;0.87;100.00
74163;BME280;62515;52.758;5.076;2023-03-01T00:34:31;103396.59;;;0.86;100.00
74163;BME280;62515;52.758;5.076;2023-03-01T00:37:00;103396.53;;;0.82;100.00
74163;BME280;62515;52.758;5.076;2023-03-01T00:39:27;103399.13;;;0.79;100.00
74163;BME280;62515;52.758;5.076;2023-03-01T00:41:54;103402.59;;;0.75;100.00
74163;BME280;62515;52.758;5.076;2023-03-01T00:44:21;103395.53;;;0.68;100.00
74163;BME280;62515;52.758;5.076;2023-03-01T00:46:48;103399.81;;;0.58;100.00
74163;BME280;62515;52.758;5.076;2023-03-01T00:49:15;103386.78;;;0.66;100.00
74163;BME280;62515;52.758;5.076;2023-03-01T00:51:42;61789.78;;;-140.62;100.00
74163;BME280;62515;52.758;5.076;2023-03-01T00:54:10;61789.78;;;-140.62;100.00
74163;BME280;62515;52.758;5.076;2023-03-01T00:56:37;61789.78;;;-140.62;100.00
74163;BME280;62515;52.758;5.076;2023-03-01T00:59:04;61789.78;;;-140.62;100.00
74163;BME280;62515;52.758;5.076;2023-03-01T01:01:31;61789.78;;;-140.62;100.00
74163;BME280;62515;52.758;5.076;2023-03-01T01:04:00;61789.78;;;-140.62;100.00
74163;BME280;62515;52.758;5.076;2023-03-01T01:06:29;61789.78;;;-140.62;100.00
74163;BME280;62515;52.758;5.076;2023-03-01T01:08:57;61789.78;;;-140.62;100.00
74163;BME280;62515;52.758;5.076;2023-03-01T01:11:28;61789.78;;;-140.62;100.00
74163;BME280;62515;52.758;5.076;2023-03-01T01:13:56;61789.78;;;-140.62;100.00
74163;BME280;62515;52.758;5.076;2023-03-01T01:16:24;61789.78;;;-140.62;100.00
74163;BME280;62515;52.758;5.076;2023-03-01T01:18:52;61789.78;;;-140.62;100.00
74163;BME280;62515;52.758;5.076;2023-03-01T01:21:21;61789.78;;;-140.62;100.00
74163;BME280;62515;52.758;5.076;2023-03-01T01:23:50;61789.78;;;-140.62;100.00
74163;BME280;62515;52.758;5.076;2023-03-01T01:26:19;61789.78;;;-140.62;100.00
74163;BME280;62515;52.758;5.076;2023-03-01T01:28:50;61789.78;;;-140.62;100.00
74163;BME280;62515;52.758;5.076;2023-03-01T01:31:18;61789.78;;;-140.62;100.00
74163;BME280;62515;52.758;5.076;2023-03-01T01:33:46;61789.78;;;-140.62;100.00
74163;BME280;62515;52.758;5.076;2023-03-01T01:36:13;61789.78;;;-140.62;100.00
74163;BME280;62515;52.758;5.076;2023-03-01T01:38:40;61789.78;;;-140.62;100.00
74163;BME280;62515;52.758;5.076;2023-03-01T01:41:06;61789.78;;;-140.62;100.00
74163;BME280;62515;52.758;5.076;2023-03-01T01:43:35;61789.78;;;-140.62;100.00
74163;BME280;62515;52.758;5.076;2023-03-01T01:46:10;61789.78;;;-140.62;100.00
74163;BME280;62515;52.758;5.076;2023-03-01T01:48:43;61789.78;;;-140.62;100.00
74163;BME280;62515;52.758;5.076;2023-03-01T01:51:17;61789.78;;;-140.62;100.00
74163;BME280;62515;52.758;5.076;2023-03-01T01:53:48;61789.78;;;-140.62;100.00
74163;BME280;62515;52.758;5.076;2023-03-01T01:56:18;61789.78;;;-140.62;100.00
74163;BME280;62515;52.758;5.076;2023-03-01T01:58:47;61789.78;;;-140.62;100.00
74163;BME280;62515;52.758;5.076;2023-03-01T02:01:15;61789.78;;;-140.62;100.00
74163;BME280;62515;52.758;5.076;2023-03-01T02:03:44;61789.78;;;-140.62;100.00
74163;BME280;62515;52.758;5.076;2023-03-01T02:06:13;61789.78;;;-140.62;100.00
74163;BME280;62515;52.758;5.076;2023-03-01T02:08:44;61789.78;;;-140.62;100.00
74163;BME280;62515;52.758;5.076;2023-03-01T02:11:13;61789.78;;;-140.62;100.00
74163;BME280;62515;52.758;5.076;2023-03-01T02:13:41;61789.78;;;-140.62;100.00
74163;BME280;62515;52.758;5.076;2023-03-01T02:16:09;61789.78;;;-140.62;100.00
74163;BME280;62515;52.758;5.076;2023-03-01T02:18:39;61789.78;;;-140.62;100.00
74163;BME280;62515;52.758;5.076;2023-03-01T02:21:17;61789.78;;;-140.62;100.00
74163;BME280;62515;52.758;5.076;2023-03-01T02:23:48;61789.78;;;-140.62;100.00
74163;BME280;62515;52.758;5.076;2023-03-01T02:26:19;61789.78;;;-140.62;100.00
74163;BME280;62515;52.758;5.076;2023-03-01T02:28:48;61789.78;;;-140.62;100.00
74163;BME280;62515;52.758;5.076;2023-03-01T02:31:19;61789.78;;;-140.62;100.00
74163;BME280;62515;52.758;5.076;2023-03-01T02:33:47;61789.78;;;-140.62;100.00
74163;BME280;62515;52.758;5.076;2023-03-01T02:36:16;61789.78;;;-140.62;100.00
74163;BME280;62515;52.758;5.076;2023-03-01T02:38:43;61789.78;;;-140.62;100.00
74163;BME280;62515;52.758;5.076;2023-03-01T02:41:12;61789.78;;;-140.62;100.00
74163;BME280;62515;52.758;5.076;2023-03-01T02:43:41;61789.78;;;-140.62;100.00
74163;BME280;62515;52.758;5.076;2023-03-01T02:46:14;61789.78;;;-140.62;100.00
74163;BME280;62515;52.758;5.076;2023-03-01T02:48:45;61789.78;;;-140.62;100.00
74163;BME280;62515;52.758;5.076;2023-03-01T02:51:24;61789.78;;;-140.62;100.00
74163;BME280;62515;52.758;5.076;2023-03-01T02:53:59;61789.78;;;-140.62;100.00
74163;BME280;62515;52.758;5.076;2023-03-01T02:56:29;61789.78;;;-140.62;100.00
74163;BME280;62515;52.758;5.076;2023-03-01T02:58:57;61789.78;;;-140.62;100.00
74163;BME280;62515;52.758;5.076;2023-03-01T03:01:26;61789.78;;;-140.62;100.00
74163;BME280;62515;52.758;5.076;2023-03-01T03:03:53;61789.78;;;-140.62;100.00
74163;BME280;62515;52.758;5.076;2023-03-01T03:06:20;61789.78;;;-140.62;100.00
74163;BME280;62515;52.758;5.076;2023-03-01T03:08:47;61789.78;;;-140.62;100.00
74163;BME280;62515;52.758;5.076;2023-03-01T03:11:14;61789.78;;;-140.62;100.00
74163;BME280;62515;52.758;5.076;2023-03-01T03:13:41;61789.78;;;-140.62;100.00
74163;BME280;62515;52.758;5.076;2023-03-01T03:16:08;61789.78;;;-140.62;100.00
74163;BME280;62515;52.758;5.076;2023-03-01T03:18:36;61789.78;;;-140.62;100.00
74163;BME280;62515;52.758;5.076;2023-03-01T03:21:07;61789.78;;;-140.62;100.00
74163;BME280;62515;52.758;5.076;2023-03-01T03:23:34;61789.78;;;-140.62;100.00
74163;BME280;62515;52.758;5.076;2023-03-01T03:26:01;61789.78;;;-140.62;100.00
74163;BME280;62515;52.758;5.076;2023-03-01T03:28:27;61789.78;;;-140.62;100.00
74163;BME280;62515;52.758;5.076;2023-03-01T03:30:54;61789.78;;;-140.62;100.00
74163;BME280;62515;52.758;5.076;2023-03-01T03:33:21;61789.78;;;-140.62;100.00
74163;BME280;62515;52.758;5.076;2023-03-01T03:35:50;61789.78;;;-140.62;100.00
74163;BME280;62515;52.758;5.076;2023-03-01T03:38:19;61789.78;;;-140.62;100.00
74163;BME280;62515;52.758;5.076;2023-03-01T03:40:46;61789.78;;;-140.62;100.00
74163;BME280;62515;52.758;5.076;2023-03-01T03:43:15;61789.78;;;-140.62;100.00
74163;BME280;62515;52.758;5.076;2023-03-01T03:45:43;61789.78;;;-140.62;100.00
74163;BME280;62515;52.758;5.076;2023-03-01T03:48:11;61789.78;;;-140.62;100.00
74163;BME280;62515;52.758;5.076;2023-03-01T03:50:38;61789.78;;;-140.62;100.00
74163;BME280;62515;52.758;5.076;2023-03-01T03:53:09;61789.78;;;-140.62;100.00
74163;BME280;62515;52.758;5.076;2023-03-01T03:55:36;61789.78;;;-140.62;100.00
74163;BME280;62515;52.758;5.076;2023-03-01T03:58:03;61789.78;;;-140.62;100.00
74163;BME280;62515;52.758;5.076;2023-03-01T04:00:30;61789.78;;;-140.62;100.00
74163;BME280;62515;52.758;5.076;2023-03-01T04:02:56;61789.78;;;-140.62;100.00
74163;BME280;62515;52.758;5.076;2023-03-01T04:05:23;61789.78;;;-140.62;100.00
74163;BME280;62515;52.758;5.076;2023-03-01T04:07:50;61789.78;;;-140.62;100.00
74163;BME280;62515;52.758;5.076;2023-03-01T04:10:18;61789.78;;;-140.62;100.00
74163;BME280;62515;52.758;5.076;2023-03-01T04:12:45;61789.78;;;-140.62;100.00
74163;BME280;62515;52.758;5.076;2023-03-01T04:15:12;61789.78;;;-140.62;100.00
74163;BME280;62515;52.758;5.076;2023-03-01T04:17:39;61789.78;;;-140.62;100.00
74163;BME280;62515;52.758;5.076;2023-03-01T04:20:07;61789.78;;;-140.62;100.00
74163;BME280;62515;52.758;5.076;2023-03-01T04:22:34;61789.78;;;-140.62;100.00
74163;BME280;62515;52.758;5.076;2023-03-01T04:25:01;61789.78;;;-140.62;100.00
74163;BME280;62515;52.758;5.076;2023-03-01T04:27:29;61789.78;;;-140.62;100.00
74163;BME280;62515;52.758;5.076;2023-03-01T04:29:55;61789.78;;;-140.62;100.00
74163;BME280;62515;52.758;5.076;2023-03-01T04:32:22;61789.78;;;-140.62;100.00
74163;BME280;62515;52.758;5.076;2023-03-01T04:34:49;61789.78;;;-140.62;100.00
74163;BME280;62515;52.758;5.076;2023-03-01T04:37:16;61789.78;;;-140.62;100.00
74163;BME280;62515;52.758;5.076;2023-03-01T04:39:42;61789.78;;;-140.62;100.00
74163;BME280;62515;52.758;5.076;2023-03-01T04:42:09;61789.78;;;-140.62;100.00
74163;BME280;62515;52.758;5.076;2023-03-01T04:44:37;61789.78;;;-140.62;100.00
74163;BME280;62515;52.758;5.076;2023-03-01T04:47:04;61789.78;;;-140.62;100.00
74163;BME280;62515;52.758;5.076;2023-03-01T04:49:31;61789.78;;;-140.62;100.00
74163;BME280;62515;52.758;5.076;2023-03-01T04:51:58;61789.78;;;-140.62;100.00
74163;BME280;62515;52.758;5.076;2023-03-01T04:54:24;61789.78;;;-140.62;100.00
74163;BME280;62515;52.758;5.076;2023-03-01T04:56:51;61789.78;;;-140.62;100.00
74163;BME280;62515;52.758;5.076;2023-03-01T04:59:18;61789.78;;;-140.62;100.00
74163;BME280;62515;52.758;5.076;2023-03-01T05:01:46;61789.78;;;-140.62;100.00
74163;BME280;62515;52.758;5.076;2023-03-01T05:04:12;61789.78;;;-140.62;100.00
74163;BME280;62515;52.758;5.076;2023-03-01T05:06:39;61789.78;;;-140.62;100.00
74163;BME280;62515;52.758;5.076;2023-03-01T05:09:06;61789.78;;;-140.62;100.00
74163;BME280;62515;52.758;5.076;2023-03-01T05:11:33;61789.78;;;-140.62;100.00
74163;BME280;62515;52.758;5.076;2023-03-01T05:13:59;61789.78;;;-140.62;100.00
74163;BME280;62515;52.758;5.076;2023-03-01T05:16:26;61789.78;;;-140.62;100.00
74163;BME280;62515;52.758;5.076;2023-03-01T05:18:55;61789.78;;;-140.62;100.00
74163;BME280;62515;52.758;5.076;2023-03-01T05:21:22;61789.78;;;-140.62;100.00
74163;BME280;62515;52.758;5.076;2023-03-01T05:23:49;61789.78;;;-140.62;100.00
74163;BME280;62515;52.758;5.076;2023-03-01T05:26:17;61789.78;;;-140.62;100.00
74163;BME280;62515;52.758;5.076;2023-03-01T05:28:53;61789.78;;;-140.62;100.00
74163;BME280;62515;52.758;5.076;2023-03-01T05:31:20;61789.78;;;-140.62;100.00
74163;BME280;62515;52.758;5.076;2023-03-01T05:33:47;61789.78;;;-140.62;100.00
74163;BME280;62515;52.758;5.076;2023-03-01T05:36:15;61789.78;;;-140.62;100.00
74163;BME280;62515;52.758;5.076;2023-03-01T05:38:42;61789.78;;;-140.62;100.00
74163;BME280;62515;52.758;5.076;2023-03-01T05:41:14;61789.78;;;-140.62;100.00
74163;BME280;62515;52.758;5.076;2023-03-01T05:43:41;61789.78;;;-140.62;100.00
74163;BME280;62515;52.758;5.076;2023-03-01T05:46:08;61789.78;;;-140.62;100.00
74163;BME280;62515;52.758;5.076;2023-03-01T05:48:35;61789.78;;;-140.62;100.00
74163;BME280;62515;52.758;5.076;2023-03-01T05:51:02;61789.78;;;-140.62;100.00
74163;BME280;62515;52.758;5.076;2023-03-01T05:53:30;61789.78;;;-140.62;100.00
74163;BME280;62515;52.758;5.076;2023-03-01T05:55:57;61789.78;;;-140.62;100.00
74163;BME280;62515;52.758;5.076;2023-03-01T05:58:23;61789.78;;;-140.62;100.00
74163;BME280;62515;52.758;5.076;2023-03-01T06:00:50;61789.78;;;-140.62;100.00
74163;BME280;62515;52.758;5.076;2023-03-01T06:03:20;61789.78;;;-140.62;100.00
74163;BME280;62515;52.758;5.076;2023-03-01T06:05:47;61789.78;;;-140.62;100.00
74163;BME280;62515;52.758;5.076;2023-03-01T06:08:13;61789.78;;;-140.62;100.00
74163;BME280;62515;52.758;5.076;2023-03-01T06:10:42;61789.78;;;-140.62;100.00
74163;BME280;62515;52.758;5.076;2023-03-01T06:13:08;61789.78;;;-140.62;100.00
74163;BME280;62515;52.758;5.076;2023-03-01T06:15:35;61789.78;;;-140.62;100.00
74163;BME280;62515;52.758;5.076;2023-03-01T06:18:03;61789.78;;;-140.62;100.00
74163;BME280;62515;52.758;5.076;2023-03-01T06:20:30;61789.78;;;-140.62;100.00
74163;BME280;62515;52.758;5.076;2023-03-01T06:22:57;61789.78;;;-140.62;100.00
74163;BME280;62515;52.758;5.076;2023-03-01T06:25:25;61789.78;;;-140.62;100.00
74163;BME280;62515;52.758;5.076;2023-03-01T06:27:54;61789.78;;;-140.62;100.00
74163;BME280;62515;52.758;5.076;2023-03-01T06:30:23;61789.78;;;-140.62;100.00
74163;BME280;62515;52.758;5.076;2023-03-01T06:32:50;61789.78;;;-140.62;100.00
74163;BME280;62515;52.758;5.076;2023-03-01T06:35:19;61789.78;;;-140.62;100.00
74163;BME280;62515;52.758;5.076;2023-03-01T06:37:47;61789.78;;;-140.62;100.00
74163;BME280;62515;52.758;5.076;2023-03-01T06:40:14;61789.78;;;-140.62;100.00
74163;BME280;62515;52.758;5.076;2023-03-01T06:42:43;61789.78;;;-140.62;100.00
74163;BME280;62515;52.758;5.076;2023-03-01T06:45:11;61789.78;;;-140.62;100.00
74163;BME280;62515;52.758;5.076;2023-03-01T06:47:38;61789.78;;;-140.62;100.00
74163;BME280;62515;52.758;5.076;2023-03-01T06:50:06;61789.78;;;-140.62;100.00
74163;BME280;62515;52.758;5.076;2023-03-01T06:52:33;61789.78;;;-140.62;100.00
74163;BME280;62515;52.758;5.076;2023-03-01T06:55:00;61789.78;;;-140.62;100.00
74163;BME280;62515;52.758;5.076;2023-03-01T06:57:29;61789.78;;;-140.62;100.00
74163;BME280;62515;52.758;5.076;2023-03-01T06:59:57;61789.78;;;-140.62;100.00
74163;BME280;62515;52.758;5.076;2023-03-01T07:02:25;61789.78;;;-140.62;100.00
74163;BME280;62515;52.758;5.076;2023-03-01T07:04:52;61789.78;;;-140.62;100.00
74163;BME280;62515;52.758;5.076;2023-03-01T07:07:19;61789.78;;;-140.62;100.00
74163;BME280;62515;52.758;5.076;2023-03-01T07:09:47;61789.78;;;-140.62;100.00
74163;BME280;62515;52.758;5.076;2023-03-01T07:12:15;61789.78;;;-140.62;100.00
74163;BME280;62515;52.758;5.076;2023-03-01T07:14:43;61789.78;;;-140.62;100.00
74163;BME280;62515;52.758;5.076;2023-03-01T07:17:10;61789.78;;;-140.62;100.00
74163;BME280;62515;52.758;5.076;2023-03-01T07:19:38;61789.78;;;-140.62;100.00
74163;BME280;62515;52.758;5.076;2023-03-01T07:22:05;61789.78;;;-140.62;100.00
74163;BME280;62515;52.758;5.076;2023-03-01T07:24:32;61789.78;;;-140.62;100.00
74163;BME280;62515;52.758;5.076;2023-03-01T07:26:58;61789.78;;;-140.62;100.00
74163;BME280;62515;52.758;5.076;2023-03-01T07:29:25;61789.78;;;-140.62;100.00
74163;BME280;62515;52.758;5.076;2023-03-01T07:31:52;61789.78;;;-140.62;100.00
74163;BME280;62515;52.758;5.076;2023-03-01T07:34:19;61789.78;;;-140.62;100.00
74163;BME280;62515;52.758;5.076;2023-03-01T07:36:48;61789.78;;;-140.62;100.00
74163;BME280;62515;52.758;5.076;2023-03-01T07:39:15;61789.78;;;-140.62;100.00
74163;BME280;62515;52.758;5.076;2023-03-01T07:41:44;61789.78;;;-140.62;100.00
74163;BME280;62515;52.758;5.076;2023-03-01T07:44:10;61789.78;;;-140.62;100.00
74163;BME280;62515;52.758;5.076;2023-03-01T07:46:37;61789.78;;;-140.62;100.00
74163;BME280;62515;52.758;5.076;2023-03-01T07:49:04;61789.78;;;-140.62;100.00
74163;BME280;62515;52.758;5.076;2023-03-01T07:51:30;61789.78;;;-140.62;100.00
74163;BME280;62515;52.758;5.076;2023-03-01T07:53:59;61789.78;;;-140.62;100.00
74163;BME280;62515;52.758;5.076;2023-03-01T07:56:26;61789.78;;;-140.62;100.00
74163;BME280;62515;52.758;5.076;2023-03-01T07:58:52;61789.78;;;-140.62;100.00
74163;BME280;62515;52.758;5.076;2023-03-01T08:01:20;61789.78;;;-140.62;100.00
74163;BME280;62515;52.758;5.076;2023-03-01T08:03:47;61789.78;;;-140.62;100.00
74163;BME280;62515;52.758;5.076;2023-03-01T08:06:16;61789.78;;;-140.62;100.00
74163;BME280;62515;52.758;5.076;2023-03-01T08:08:43;61789.78;;;-140.62;100.00
74163;BME280;62515;52.758;5.076;2023-03-01T08:11:13;61789.78;;;-140.62;100.00
74163;BME280;62515;52.758;5.076;2023-03-01T08:13:40;61789.78;;;-140.62;100.00
74163;BME280;62515;52.758;5.076;2023-03-01T08:16:12;61789.78;;;-140.62;100.00
74163;BME280;62515;52.758;5.076;2023-03-01T08:18:39;61789.78;;;-140.62;100.00
74163;BME280;62515;52.758;5.076;2023-03-01T08:21:08;61789.78;;;-140.62;100.00
74163;BME280;62515;52.758;5.076;2023-03-01T08:23:36;61789.78;;;-140.62;100.00
74163;BME280;62515;52.758;5.076;2023-03-01T08:26:05;61789.78;;;-140.62;100.00
74163;BME280;62515;52.758;5.076;2023-03-01T08:28:33;61789.78;;;-140.62;100.00
74163;BME280;62515;52.758;5.076;2023-03-01T08:31:00;61789.78;;;-140.62;100.00
74163;BME280;62515;52.758;5.076;2023-03-01T08:33:27;61789.78;;;-140.62;100.00
74163;BME280;62515;52.758;5.076;2023-03-01T08:36:02;61789.78;;;-140.62;100.00
74163;BME280;62515;52.758;5.076;2023-03-01T08:38:29;61789.78;;;-140.62;100.00
74163;BME280;62515;52.758;5.076;2023-03-01T08:40:59;61789.78;;;-140.62;100.00
74163;BME280;62515;52.758;5.076;2023-03-01T08:43:26;61789.78;;;-140.62;100.00
74163;BME280;62515;52.758;5.076;2023-03-01T08:45:55;61789.78;;;-140.62;100.00
74163;BME280;62515;52.758;5.076;2023-03-01T08:48:21;61789.78;;;-140.62;100.00
74163;BME280;62515;52.758;5.076;2023-03-01T08:50:48;61789.78;;;-140.62;100.00
74163;BME280;62515;52.758;5.076;2023-03-01T08:53:15;61789.78;;;-140.62;100.00
74163;BME280;62515;52.758;5.076;2023-03-01T08:55:42;61789.78;;;-140.62;100.00
74163;BME280;62515;52.758;5.076;2023-03-01T08:58:09;61789.78;;;-140.62;100.00
74163;BME280;62515;52.758;5.076;2023-03-01T09:00:35;61789.78;;;-140.62;100.00
74163;BME280;62515;52.758;5.076;2023-03-01T09:03:04;61789.78;;;-140.62;100.00
74163;BME280;62515;52.758;5.076;2023-03-01T09:05:31;61789.78;;;-140.62;100.00
74163;BME280;62515;52.758;5.076;2023-03-01T09:07:58;61789.78;;;-140.62;100.00
74163;BME280;62515;52.758;5.076;2023-03-01T09:10:25;61789.78;;;-140.62;100.00
74163;BME280;62515;52.758;5.076;2023-03-01T09:12:54;61789.78;;;-140.62;100.00
74163;BME280;62515;52.758;5.076;2023-03-01T09:15:21;61789.78;;;-140.62;100.00
74163;BME280;62515;52.758;5.076;2023-03-01T09:17:48;61789.78;;;-140.62;100.00
74163;BME280;62515;52.758;5.076;2023-03-01T09:20:16;61789.78;;;-140.62;100.00
74163;BME280;62515;52.758;5.076;2023-03-01T09:22:43;61789.78;;;-140.62;100.00
74163;BME280;62515;52.758;5.076;2023-03-01T09:25:09;61789.78;;;-140.62;100.00
74163;BME280;62515;52.758;5.076;2023-03-01T09:27:36;61789.78;;;-140.62;100.00
74163;BME280;62515;52.758;5.076;2023-03-01T09:30:04;61789.78;;;-140.62;100.00
74163;BME280;62515;52.758;5.076;2023-03-01T09:32:31;61789.78;;;-140.62;100.00
74163;BME280;62515;52.758;5.076;2023-03-01T09:34:58;61789.78;;;-140.62;100.00
74163;BME280;62515;52.758;5.076;2023-03-01T09:37:26;61789.78;;;-140.62;100.00
74163;BME280;62515;52.758;5.076;2023-03-01T09:39:53;61789.78;;;-140.62;100.00
74163;BME280;62515;52.758;5.076;2023-03-01T09:42:20;61789.78;;;-140.62;100.00
74163;BME280;62515;52.758;5.076;2023-03-01T09:44:51;61789.78;;;-140.62;100.00
74163;BME280;62515;52.758;5.076;2023-03-01T09:47:21;61789.78;;;-140.62;100.00
74163;BME280;62515;52.758;5.076;2023-03-01T09:49:58;61789.78;;;-140.62;100.00
74163;BME280;62515;52.758;5.076;2023-03-01T09:52:34;61789.78;;;-140.62;100.00
74163;BME280;62515;52.758;5.076;2023-03-01T09:55:08;61789.78;;;-140.62;100.00
74163;BME280;62515;52.758;5.076;2023-03-01T09:57:42;61789.78;;;-140.62;100.00
74163;BME280;62515;52.758;5.076;2023-03-01T10:00:17;61789.78;;;-140.62;100.00
74163;BME280;62515;52.758;5.076;2023-03-01T10:02:49;61789.78;;;-140.62;100.00
74163;BME280;62515;52.758;5.076;2023-03-01T10:05:47;61789.78;;;-140.62;100.00
74163;BME280;62515;52.758;5.076;2023-03-01T10:08:38;61789.78;;;-140.62;100.00
74163;BME280;62515;52.758;5.076;2023-03-01T10:11:18;61789.78;;;-140.62;100.00
74163;BME280;62515;52.758;5.076;2023-03-01T10:13:54;61789.78;;;-140.62;100.00
74163;BME280;62515;52.758;5.076;2023-03-01T10:16:26;61789.78;;;-140.62;100.00
74163;BME280;62515;52.758;5.076;2023-03-01T10:19:00;61789.78;;;-140.62;100.00
74163;BME280;62515;52.758;5.076;2023-03-01T10:21:29;61789.78;;;-140.62;100.00
74163;BME280;62515;52.758;5.076;2023-03-01T10:24:08;61789.78;;;-140.62;100.00
74163;BME280;62515;52.758;5.076;2023-03-01T10:26:43;61789.78;;;-140.62;100.00
74163;BME280;62515;52.758;5.076;2023-03-01T10:29:15;61789.78;;;-140.62;100.00
74163;BME280;62515;52.758;5.076;2023-03-01T10:31:43;61789.78;;;-140.62;100.00
74163;BME280;62515;52.758;5.076;2023-03-01T10:34:15;61789.78;;;-140.62;100.00
74163;BME280;62515;52.758;5.076;2023-03-01T10:36:44;61789.78;;;-140.62;100.00
74163;BME280;62515;52.758;5.076;2023-03-01T10:39:15;61789.78;;;-140.62;100.00
74163;BME280;62515;52.758;5.076;2023-03-01T10:41:56;61789.78;;;-140.62;100.00
74163;BME280;62515;52.758;5.076;2023-03-01T10:44:41;61789.78;;;-140.62;100.00
74163;BME280;62515;52.758;5.076;2023-03-01T10:47:19;61789.78;;;-140.62;100.00
74163;BME280;62515;52.758;5.076;2023-03-01T10:49:57;61789.78;;;-140.62;100.00
74163;BME280;62515;52.758;5.076;2023-03-01T10:52:27;61789.78;;;-140.62;100.00
74163;BME280;62515;52.758;5.076;2023-03-01T10:54:58;61789.78;;;-140.62;100.00
74163;BME280;62515;52.758;5.076;2023-03-01T10:57:32;61789.78;;;-140.62;100.00
74163;BME280;62515;52.758;5.076;2023-03-01T11:00:18;61789.78;;;-140.62;100.00
74163;BME280;62515;52.758;5.076;2023-03-01T11:02:47;61789.78;;;-140.62;100.00
74163;BME280;62515;52.758;5.076;2023-03-01T11:05:21;61789.78;;;-140.62;100.00
74163;BME280;62515;52.758;5.076;2023-03-01T11:07:49;61789.78;;;-140.62;100.00
74163;BME280;62515;52.758;5.076;2023-03-01T11:10:34;61789.78;;;-140.62;100.00
74163;BME280;62515;52.758;5.076;2023-03-01T11:13:09;61789.78;;;-140.62;100.00
74163;BME280;62515;52.758;5.076;2023-03-01T11:15:40;61789.78;;;-140.62;100.00
74163;BME280;62515;52.758;5.076;2023-03-01T11:18:18;61789.78;;;-140.62;100.00
74163;BME280;62515;52.758;5.076;2023-03-01T11:20:46;61789.78;;;-140.62;100.00
74163;BME280;62515;52.758;5.076;2023-03-01T11:23:15;61789.78;;;-140.62;100.00
74163;BME280;62515;52.758;5.076;2023-03-01T11:25:48;61789.78;;;-140.62;100.00
74163;BME280;62515;52.758;5.076;2023-03-01T11:28:20;61789.78;;;-140.62;100.00
74163;BME280;62515;52.758;5.076;2023-03-01T11:30:51;61789.78;;;-140.62;100.00
74163;BME280;62515;52.758;5.076;2023-03-01T11:33:39;61789.78;;;-140.62;100.00
74163;BME280;62515;52.758;5.076;2023-03-01T11:36:16;61789.78;;;-140.62;100.00
74163;BME280;62515;52.758;5.076;2023-03-01T11:38:43;61789.78;;;-140.62;100.00
74163;BME280;62515;52.758;5.076;2023-03-01T11:41:15;61789.78;;;-140.62;100.00
74163;BME280;62515;52.758;5.076;2023-03-01T11:43:49;61789.78;;;-140.62;100.00
74163;BME280;62515;52.758;5.076;2023-03-01T11:49:47;61789.78;;;-140.62;100.00
74163;BME280;62515;52.758;5.076;2023-03-01T11:52:25;61789.78;;;-140.62;100.00
74163;BME280;62515;52.758;5.076;2023-03-01T11:55:09;61789.78;;;-140.62;100.00
74163;BME280;62515;52.758;5.076;2023-03-01T11:57:52;61789.78;;;-140.62;100.00
74163;BME280;62515;52.758;5.076;2023-03-01T12:00:46;61789.78;;;-140.62;100.00
74163;BME280;62515;52.758;5.076;2023-03-01T12:03:29;61789.78;;;-140.62;100.00
74163;BME280;62515;52.758;5.076;2023-03-01T12:06:18;61789.78;;;-140.62;100.00
74163;BME280;62515;52.758;5.076;2023-03-01T12:08:59;61789.78;;;-140.62;100.00
74163;BME280;62515;52.758;5.076;2023-03-01T12:12:00;61789.78;;;-140.62;100.00
74163;BME280;62515;52.758;5.076;2023-03-01T12:14:58;61789.78;;;-140.62;100.00
74163;BME280;62515;52.758;5.076;2023-03-01T12:20:43;61789.78;;;-140.62;100.00
74163;BME280;62515;52.758;5.076;2023-03-01T12:23:44;61789.78;;;-140.62;100.00
74163;BME280;62515;52.758;5.076;2023-03-01T12:26:28;61789.78;;;-140.62;100.00
74163;BME280;62515;52.758;5.076;2023-03-01T12:29:21;61789.78;;;-140.62;100.00
74163;BME280;62515;52.758;5.076;2023-03-01T12:35:23;61789.78;;;-140.62;100.00
74163;BME280;62515;52.758;5.076;2023-03-01T12:38:06;61789.78;;;-140.62;100.00
74163;BME280;62515;52.758;5.076;2023-03-01T12:40:50;61789.78;;;-140.62;100.00
74163;BME280;62515;52.758;5.076;2023-03-01T12:43:36;61789.78;;;-140.62;100.00
74163;BME280;62515;52.758;5.076;2023-03-01T12:46:21;61789.78;;;-140.62;100.00
74163;BME280;62515;52.758;5.076;2023-03-01T12:48:59;61789.78;;;-140.62;100.00
74163;BME280;62515;52.758;5.076;2023-03-01T12:51:51;61789.78;;;-140.62;100.00
74163;BME280;62515;52.758;5.076;2023-03-01T12:54:36;61789.78;;;-140.62;100.00